Time;durP1;ratioP1;P1;durP2;ratioP2;P2;SDS_P1;SDS_P2;PMS_P1;PMS_P2;Temp;Humidity;BMP_temperature;BMP_pressure;BME280_temperature;BME280_humidity;BME280_pressure;Samples;Min_cycle;Max_cycle;Signal;HPM_P1;HPM_P2
2023/01/30 00:01:57;;;;;;;18.10;8.02;;;-3.50;99.90;;;;;;8283506;28;20033;-78
2023/01/30 00:05:57;;;;;;;12.55;6.40;;;-3.40;99.90;;;;;;8295209;28;20021;-79
2023/01/30 00:09:58;;;;;;;13.32;5.30;;;-3.20;99.90;;;;;;8286346;28;20030;-79
2023/01/30 00:14:00;;;;;;;20.42;8.20;;;-3.20;99.90;;;;;;8307254;28;20022;-79
2023/01/30 00:18:00;;;;;;;17.73;7.20;;;-3.40;99.90;;;;;;8297822;28;20509;-77
2023/01/30 00:22:01;;;;;;;7.65;2.78;;;-3.20;99.90;;;;;;8286292;28;20113;-79
2023/01/30 00:26:03;;;;;;;23.67;9.10;;;-2.80;99.90;;;;;;8313664;28;20041;-78
2023/01/30 00:30:06;;;;;;;19.48;8.98;;;-2.90;99.90;;;;;;8302770;28;20022;-79
2023/01/30 00:34:06;;;;;;;31.08;9.02;;;-3.00;99.90;;;;;;8296969;28;20018;-79
2023/01/30 00:38:07;;;;;;;24.95;9.15;;;-3.10;99.90;;;;;;8283851;28;20732;-79
2023/01/30 00:50:52;;;;;;;14.75;5.55;;;-3.10;99.90;;;;;;8302802;28;20044;-79
2023/01/30 00:54:52;;;;;;;12.60;6.82;;;-3.00;99.90;;;;;;8303443;28;20030;-78
2023/01/30 00:58:53;;;;;;;13.52;4.93;;;-2.80;99.90;;;;;;8291065;28;20914;-78
2023/01/30 01:02:53;;;;;;;17.45;8.10;;;-2.70;99.90;;;;;;8292983;28;20068;-79
2023/01/30 01:06:53;;;;;;;17.33;8.13;;;-2.70;99.90;;;;;;8296731;28;20418;-79
2023/01/30 01:10:54;;;;;;;9.15;4.43;;;-2.70;99.90;;;;;;8295703;28;20072;-77
2023/01/30 01:14:54;;;;;;;14.85;7.50;;;-2.90;99.90;;;;;;8320026;28;20038;-78
2023/01/30 01:18:55;;;;;;;16.58;8.65;;;-2.70;99.90;;;;;;8288214;28;20068;-78
2023/01/30 01:22:56;;;;;;;10.32;6.35;;;-2.70;99.90;;;;;;8300520;28;20032;-78
2023/01/30 01:26:57;;;;;;;13.18;6.55;;;-2.70;99.90;;;;;;8300799;28;20022;-78
2023/01/30 01:30:58;;;;;;;10.85;5.13;;;-2.60;99.90;;;;;;8297829;28;20090;-79
2023/01/30 01:34:58;;;;;;;10.18;4.65;;;-2.60;99.90;;;;;;8304628;28;20059;-78
2023/01/30 01:38:59;;;;;;;13.90;6.32;;;-2.60;99.90;;;;;;8288544;28;20057;-78
2023/01/30 01:42:59;;;;;;;18.00;8.38;;;-2.60;99.90;;;;;;8276217;28;20061;-78
2023/01/30 01:47:00;;;;;;;12.95;6.20;;;-2.60;99.90;;;;;;8304057;28;20034;-79
2023/01/30 01:51:24;;;;;;;18.95;9.38;;;-2.70;99.90;;;;;;8287978;28;20037;-78
2023/01/30 01:55:26;;;;;;;17.27;7.05;;;-2.70;99.90;;;;;;8281442;28;20049;-78
2023/01/30 01:59:31;;;;;;;21.40;8.52;;;-2.70;99.90;;;;;;8285811;28;20521;-78
2023/01/30 02:03:38;;;;;;;20.77;7.70;;;-2.70;99.90;;;;;;8289809;28;20029;-78
2023/01/30 02:07:49;;;;;;;18.65;8.02;;;-2.70;99.90;;;;;;8299723;28;20026;-78
2023/01/30 02:11:55;;;;;;;17.15;8.70;;;-2.80;99.90;;;;;;8292026;28;20455;-77
2023/01/30 02:16:00;;;;;;;16.48;9.18;;;-2.90;99.90;;;;;;8310089;28;20017;-78
2023/01/30 02:20:22;;;;;;;11.20;5.03;;;-2.80;99.90;;;;;;8293269;28;20036;-78
2023/01/30 02:24:33;;;;;;;13.45;5.57;;;-2.60;99.90;;;;;;8313177;28;20100;-78
2023/01/30 02:28:59;;;;;;;12.00;5.35;;;-2.70;99.90;;;;;;8298285;28;20018;-78
2023/01/30 02:33:11;;;;;;;2.20;1.50;;;-2.70;99.90;;;;;;8286261;28;20108;-78
2023/01/30 02:37:26;;;;;;;14.07;4.65;;;-2.50;99.90;;;;;;8303334;28;20440;-77
2023/01/30 02:42:01;;;;;;;19.63;8.93;;;-2.60;99.90;;;;;;8289596;28;20054;-78
2023/01/30 02:46:11;;;;;;;20.85;7.85;;;-2.80;99.90;;;;;;8323206;28;20591;-78
2023/01/30 02:50:15;;;;;;;14.38;6.65;;;-2.70;99.90;;;;;;8305119;28;20026;-78
2023/01/30 02:54:15;;;;;;;17.52;7.57;;;-2.80;99.90;;;;;;8286567;28;20018;-78
2023/01/30 02:58:21;;;;;;;15.63;7.00;;;-3.00;99.90;;;;;;8281010;28;20053;-78
2023/01/30 03:02:24;;;;;;;22.70;8.48;;;-2.90;99.90;;;;;;8292569;28;20111;-78
2023/01/30 03:06:57;;;;;;;19.73;8.43;;;-2.80;99.90;;;;;;8294783;28;20021;-78
2023/01/30 03:11:01;;;;;;;16.90;7.57;;;-2.80;99.90;;;;;;8317728;28;20149;-78
2023/01/30 03:15:12;;;;;;;13.40;7.43;;;-2.80;99.90;;;;;;8284055;28;20022;-78
2023/01/30 03:19:13;;;;;;;8.55;4.90;;;-2.70;99.90;;;;;;8293721;28;20117;-77
2023/01/30 03:23:13;;;;;;;17.60;8.10;;;-2.70;99.90;;;;;;8276805;28;20029;-77
2023/01/30 03:27:14;;;;;;;9.00;4.95;;;-2.60;99.90;;;;;;8300920;28;20020;-78
2023/01/30 03:31:14;;;;;;;8.27;4.35;;;-2.50;99.90;;;;;;8303573;28;20036;-79
2023/01/30 03:35:16;;;;;;;21.10;9.38;;;-2.50;99.90;;;;;;8301068;28;20149;-78
2023/01/30 03:39:17;;;;;;;22.95;8.18;;;-2.60;99.90;;;;;;8288473;28;20148;-77
2023/01/30 03:43:17;;;;;;;16.38;7.70;;;-2.50;99.90;;;;;;8302039;28;20079;-78
2023/01/30 03:47:18;;;;;;;7.10;3.00;;;-2.40;99.90;;;;;;8277206;28;20040;-78
2023/01/30 03:51:18;;;;;;;22.13;9.85;;;-2.20;99.90;;;;;;8310653;28;20619;-78
2023/01/30 03:55:19;;;;;;;10.40;5.25;;;-2.40;99.90;;;;;;8303030;28;20038;-78
2023/01/30 03:59:20;;;;;;;17.35;7.40;;;-2.40;99.90;;;;;;8296780;28;20022;-78
2023/01/30 04:03:20;;;;;;;18.52;8.15;;;-2.40;99.90;;;;;;8292547;28;20027;-78
2023/01/30 04:07:21;;;;;;;16.58;8.13;;;-2.30;99.90;;;;;;8302194;28;20052;-78
2023/01/30 04:11:21;;;;;;;19.48;7.32;;;-2.20;99.90;;;;;;8312441;28;20017;-78
2023/01/30 04:15:22;;;;;;;22.33;9.10;;;-2.30;99.90;;;;;;8306278;28;20040;-78
2023/01/30 04:19:22;;;;;;;13.43;6.63;;;-2.30;99.90;;;;;;8302604;28;20048;-77
2023/01/30 04:23:23;;;;;;;23.75;8.93;;;-2.40;99.90;;;;;;8291050;28;20029;-78
2023/01/30 04:27:23;;;;;;;21.60;8.15;;;-2.60;99.90;;;;;;8286448;28;20022;-78
2023/01/30 04:31:24;;;;;;;14.82;6.70;;;-2.60;99.90;;;;;;8285719;28;20017;-78
2023/01/30 04:35:24;;;;;;;19.10;6.57;;;-2.50;99.90;;;;;;8283871;28;20030;-78
2023/01/30 04:39:25;;;;;;;25.15;8.18;;;-2.40;99.90;;;;;;8292442;28;20092;-78
2023/01/30 04:43:27;;;;;;;16.23;7.20;;;-2.50;99.90;;;;;;8285657;28;20076;-78
2023/01/30 04:47:28;;;;;;;13.90;5.68;;;-2.60;99.90;;;;;;8295350;28;20024;-78
2023/01/30 04:51:28;;;;;;;17.55;7.45;;;-2.70;99.90;;;;;;8279362;28;20022;-78
2023/01/30 04:55:29;;;;;;;12.10;7.00;;;-2.60;99.90;;;;;;8290886;28;20018;-78
2023/01/30 04:59:29;;;;;;;15.35;5.50;;;-2.50;99.90;;;;;;8292252;28;20410;-78
2023/01/30 05:03:30;;;;;;;11.82;6.05;;;-2.50;99.90;;;;;;8293271;28;20022;-76
2023/01/30 05:07:30;;;;;;;12.77;5.93;;;-2.50;99.90;;;;;;8293957;28;20052;-78
2023/01/30 05:11:31;;;;;;;11.00;5.82;;;-2.40;99.90;;;;;;8286297;28;20030;-77
2023/01/30 05:15:32;;;;;;;11.80;4.28;;;-2.40;99.90;;;;;;8293604;28;20109;-78
2023/01/30 05:19:33;;;;;;;10.07;5.00;;;-2.30;99.90;;;;;;8272734;28;20034;-77
2023/01/30 05:23:34;;;;;;;3.00;2.47;;;-2.20;99.90;;;;;;8301424;28;20037;-78
2023/01/30 05:27:35;;;;;;;20.38;7.45;;;-2.20;99.90;;;;;;8271603;28;20015;-78
2023/01/30 05:31:37;;;;;;;3.45;2.40;;;-2.20;99.90;;;;;;8276814;28;20803;-78
2023/01/30 05:35:38;;;;;;;9.27;5.05;;;-2.10;99.90;;;;;;8275951;28;20025;-77
2023/01/30 05:39:38;;;;;;;10.43;6.50;;;-1.90;99.90;;;;;;8275706;28;20189;-78
2023/01/30 05:43:39;;;;;;;19.75;7.70;;;-1.80;99.90;;;;;;8274812;28;20022;-78
2023/01/30 05:47:39;;;;;;;14.00;7.28;;;-1.80;99.90;;;;;;8262896;28;20109;-78
2023/01/30 05:51:40;;;;;;;20.00;9.65;;;-1.80;99.90;;;;;;8278781;28;20030;-78
2023/01/30 05:55:42;;;;;;;8.20;3.90;;;-1.60;99.90;;;;;;8281192;28;20383;-78
2023/01/30 05:59:43;;;;;;;13.38;5.47;;;-1.60;99.90;;;;;;8299221;28;20498;-78
2023/01/30 06:03:43;;;;;;;14.52;5.57;;;-1.70;99.90;;;;;;8290272;28;20060;-78
2023/01/30 06:07:44;;;;;;;11.48;6.93;;;-1.80;99.90;;;;;;8305182;28;20021;-79
2023/01/30 06:11:44;;;;;;;12.70;7.18;;;-1.90;99.90;;;;;;8302549;28;20022;-78
2023/01/30 06:15:45;;;;;;;19.83;9.18;;;-2.10;99.90;;;;;;8290737;28;20030;-78
2023/01/30 06:19:45;;;;;;;11.00;5.45;;;-2.20;99.90;;;;;;8298811;28;20032;-79
2023/01/30 06:23:46;;;;;;;14.73;6.57;;;-2.30;99.90;;;;;;8278938;28;20403;-79
2023/01/30 06:27:46;;;;;;;18.17;8.00;;;-2.30;99.90;;;;;;8306431;28;20337;-79
2023/01/30 06:31:47;;;;;;;6.03;3.53;;;-2.40;99.90;;;;;;8298701;28;20038;-79
2023/01/30 06:35:49;;;;;;;9.07;3.47;;;-2.50;99.90;;;;;;8286092;28;20112;-79
2023/01/30 06:39:50;;;;;;;14.13;6.80;;;-2.50;99.90;;;;;;8297852;28;20030;-79
2023/01/30 06:43:50;;;;;;;15.35;6.28;;;-2.40;99.90;;;;;;8278407;28;20060;-79
2023/01/30 06:47:54;;;;;;;10.30;5.00;;;-2.30;99.90;;;;;;8275259;28;20026;-78
2023/01/30 06:51:54;;;;;;;5.88;3.40;;;-2.10;99.90;;;;;;8278033;28;20037;-79
2023/01/30 06:55:56;;;;;;;5.78;3.00;;;-2.10;99.90;;;;;;8271264;28;20072;-78
2023/01/30 06:59:57;;;;;;;7.35;4.18;;;-2.00;99.90;;;;;;8279843;28;20030;-77
2023/01/30 07:03:57;;;;;;;14.18;5.20;;;-1.90;99.90;;;;;;8286233;28;20071;-79
2023/01/30 07:07:58;;;;;;;12.98;6.10;;;-1.90;99.90;;;;;;8287666;28;20025;-79
2023/01/30 07:11:58;;;;;;;13.00;6.50;;;-1.70;99.90;;;;;;8282044;28;20166;-79
2023/01/30 07:15:59;;;;;;;14.85;6.28;;;-1.60;99.90;;;;;;8282477;28;20029;-79
2023/01/30 07:19:59;;;;;;;8.38;5.22;;;-1.60;99.90;;;;;;8282494;28;20036;-79
2023/01/30 07:24:00;;;;;;;14.40;6.47;;;-1.60;99.90;;;;;;8283676;28;20036;-78
2023/01/30 07:28:02;;;;;;;18.63;6.10;;;-1.40;99.90;;;;;;8298588;28;20025;-79
2023/01/30 07:32:03;;;;;;;17.30;7.38;;;-1.50;99.90;;;;;;8308998;28;20638;-79
2023/01/30 07:36:04;;;;;;;13.63;6.55;;;-1.50;99.90;;;;;;8281651;28;20053;-79
2023/01/30 07:40:05;;;;;;;8.32;3.95;;;-1.40;99.90;;;;;;8278643;28;20145;-78
2023/01/30 07:44:06;;;;;;;11.30;5.95;;;-1.50;99.90;;;;;;8299321;28;20033;-79
2023/01/30 07:48:09;;;;;;;13.63;5.47;;;-1.40;99.90;;;;;;8286326;28;20017;-79
2023/01/30 07:52:09;;;;;;;19.20;7.88;;;-1.20;99.90;;;;;;8310911;28;20034;-79
2023/01/30 07:56:13;;;;;;;10.43;4.95;;;-1.20;99.90;;;;;;8308860;28;20026;-79
2023/01/30 08:00:14;;;;;;;11.85;5.43;;;-1.20;99.90;;;;;;8311017;28;20013;-79
2023/01/30 08:04:15;;;;;;;7.35;4.45;;;-1.20;99.90;;;;;;8306228;28;20034;-79
2023/01/30 08:08:15;;;;;;;9.48;5.10;;;-1.10;99.90;;;;;;8292660;28;20021;-79
2023/01/30 08:12:16;;;;;;;11.60;5.90;;;-1.30;99.90;;;;;;8327832;28;20270;-79
2023/01/30 08:16:16;;;;;;;10.20;4.43;;;-1.40;99.90;;;;;;8328084;28;20030;-77
2023/01/30 08:20:17;;;;;;;12.50;5.90;;;-1.40;99.90;;;;;;8326846;28;20104;-78
2023/01/30 08:24:18;;;;;;;13.00;7.38;;;-1.30;99.90;;;;;;8306171;28;20021;-78
2023/01/30 08:28:18;;;;;;;12.75;6.70;;;-1.30;99.90;;;;;;8300811;28;20043;-79
2023/01/30 08:32:19;;;;;;;15.43;6.57;;;-1.20;99.90;;;;;;8300483;28;20021;-79
2023/01/30 08:36:20;;;;;;;10.63;5.25;;;-1.10;99.90;;;;;;8311044;28;20030;-79
2023/01/30 08:40:20;;;;;;;16.05;4.93;;;-1.00;99.90;;;;;;8293795;28;20069;-79
2023/01/30 08:44:21;;;;;;;8.30;5.25;;;-0.70;99.90;;;;;;8325783;28;20026;-79
2023/01/30 08:48:22;;;;;;;11.63;5.93;;;-0.30;99.90;;;;;;8301688;28;20045;-79
2023/01/30 08:52:23;;;;;;;15.80;5.65;;;-0.10;99.90;;;;;;8291128;28;20022;-79
2023/01/30 08:56:24;;;;;;;3.80;2.75;;;0.20;99.90;;;;;;8291938;28;20025;-78
2023/01/30 09:00:25;;;;;;;6.80;3.63;;;0.20;99.90;;;;;;8296498;28;20273;-79
2023/01/30 09:04:28;;;;;;;11.07;4.88;;;0.30;99.90;;;;;;8320158;28;20033;-79
2023/01/30 09:08:29;;;;;;;13.27;6.70;;;0.60;99.90;;;;;;8282832;28;20022;-79
2023/01/30 09:12:29;;;;;;;13.15;5.60;;;0.90;99.90;;;;;;8290472;28;20040;-79
2023/01/30 09:16:30;;;;;;;12.02;6.05;;;1.40;99.90;;;;;;8274890;28;20118;-78
2023/01/30 09:20:31;;;;;;;8.82;5.05;;;1.50;99.90;;;;;;8274616;28;20486;-78
2023/01/30 09:24:31;;;;;;;11.38;4.80;;;1.40;99.90;;;;;;8290271;28;20482;-78
2023/01/30 09:28:33;;;;;;;15.02;5.70;;;1.20;99.90;;;;;;8297501;28;20026;-78
2023/01/30 09:32:36;;;;;;;13.85;5.47;;;1.10;99.90;;;;;;8298252;28;20033;-79
2023/01/30 09:36:36;;;;;;;12.20;5.00;;;1.20;99.90;;;;;;8331410;28;20017;-79
2023/01/30 09:40:48;;;;;;;11.60;5.50;;;0.90;99.90;;;;;;8304938;28;20553;-79
2023/01/30 09:45:24;;;;;;;15.40;7.28;;;1.00;99.90;;;;;;8313385;28;20371;-79
2023/01/30 09:50:01;;;;;;;11.88;5.75;;;1.40;99.90;;;;;;8190684;28;20516;-78
2023/01/30 09:54:24;;;;;;;13.38;5.80;;;1.60;99.90;;;;;;8298330;28;20050;-79
2023/01/30 09:58:35;;;;;;;14.73;6.97;;;1.70;99.90;;;;;;8322076;28;20025;-79
2023/01/30 10:02:40;;;;;;;18.30;8.70;;;1.90;99.90;;;;;;8293845;28;20033;-78
2023/01/30 10:07:16;;;;;;;13.82;6.53;;;2.30;99.90;;;;;;8288511;28;20076;-78
2023/01/30 10:11:34;;;;;;;13.65;6.80;;;2.40;99.90;;;;;;8277429;28;20053;-79
2023/01/30 10:16:10;;;;;;;14.20;6.00;;;2.70;99.90;;;;;;8279798;28;20032;-79
2023/01/30 10:20:38;;;;;;;17.17;7.80;;;3.50;99.90;;;;;;8319071;28;20156;-79
2023/01/30 10:25:04;;;;;;;10.07;5.20;;;3.50;99.90;;;;;;8290078;28;20056;-80
2023/01/30 10:29:17;;;;;;;11.02;5.25;;;3.40;99.90;;;;;;8307369;28;20025;-79
2023/01/30 10:33:27;;;;;;;10.05;5.70;;;2.90;99.90;;;;;;8303077;28;20024;-79
2023/01/30 10:37:52;;;;;;;12.05;5.70;;;2.10;99.90;;;;;;8295186;28;20020;-80
2023/01/30 10:42:01;;;;;;;10.48;5.35;;;1.60;99.90;;;;;;8295485;28;20114;-80
2023/01/30 10:46:32;;;;;;;3.15;2.33;;;1.50;99.90;;;;;;8309367;28;20393;-79
2023/01/30 10:50:47;;;;;;;8.77;4.30;;;1.20;99.90;;;;;;8296175;28;20025;-80
2023/01/30 10:55:07;;;;;;;9.20;4.40;;;0.90;99.90;;;;;;8306851;28;20069;-78
2023/01/30 10:59:10;;;;;;;7.38;4.07;;;1.20;99.90;;;;;;8308168;28;20551;-79
2023/01/30 11:03:20;;;;;;;6.32;2.83;;;1.60;99.90;;;;;;8289473;28;20018;-79
2023/01/30 11:07:21;;;;;;;9.77;4.65;;;2.00;99.90;;;;;;8301704;28;20021;-79
2023/01/30 11:11:27;;;;;;;10.18;5.68;;;2.30;99.90;;;;;;8279636;28;20025;-80
2023/01/30 11:15:43;;;;;;;7.50;4.18;;;3.00;99.90;;;;;;8286304;28;20024;-80
2023/01/30 11:19:44;;;;;;;12.27;6.32;;;4.00;99.90;;;;;;8296756;28;20029;-80
2023/01/30 11:23:45;;;;;;;11.88;6.40;;;5.40;99.90;;;;;;8280180;28;20046;-80
2023/01/30 11:27:53;;;;;;;2.60;1.88;;;6.90;99.90;;;;;;8310468;28;20025;-80
2023/01/30 11:31:55;;;;;;;10.93;5.45;;;6.60;99.90;;;;;;8310251;28;20032;-79
2023/01/30 11:35:56;;;;;;;5.93;2.88;;;4.80;99.90;;;;;;8309778;28;20025;-79
2023/01/30 11:39:56;;;;;;;9.85;4.60;;;3.70;99.90;;;;;;8306429;28;20125;-79
2023/01/30 11:44:05;;;;;;;9.13;4.75;;;3.00;99.90;;;;;;8288371;28;20509;-79
2023/01/30 11:48:19;;;;;;;14.50;5.53;;;3.00;99.90;;;;;;8299962;28;20251;-79
2023/01/30 11:52:25;;;;;;;10.77;5.45;;;2.90;99.90;;;;;;8308375;28;20374;-79
2023/01/30 11:56:39;;;;;;;12.57;5.60;;;2.80;99.90;;;;;;8305912;28;20087;-79
2023/01/30 12:00:45;;;;;;;8.13;4.63;;;2.60;99.90;;;;;;8306775;28;20022;-79
2023/01/30 12:04:50;;;;;;;11.15;4.38;;;2.50;99.90;;;;;;8294916;28;20109;-79
2023/01/30 12:08:52;;;;;;;4.95;2.13;;;2.50;99.90;;;;;;8279003;28;20021;-78
2023/01/30 12:12:57;;;;;;;8.00;2.47;;;2.60;99.90;;;;;;8293565;28;20083;-79
2023/01/30 12:17:10;;;;;;;7.78;4.25;;;2.60;99.90;;;;;;8297206;28;20057;-79
2023/01/30 12:21:40;;;;;;;13.23;4.82;;;2.70;99.90;;;;;;8290072;28;20022;-79
2023/01/30 12:25:55;;;;;;;13.30;6.70;;;3.00;99.90;;;;;;8295969;28;20033;-79
2023/01/30 12:30:36;;;;;;;9.82;4.20;;;3.20;99.90;;;;;;8294403;28;20026;-79
2023/01/30 12:34:36;;;;;;;8.23;3.00;;;3.30;99.90;;;;;;8302920;28;20013;-79
2023/01/30 12:38:49;;;;;;;7.03;3.67;;;3.40;99.90;;;;;;8315271;28;20096;-79
2023/01/30 12:43:04;;;;;;;10.05;5.75;;;3.50;99.90;;;;;;8322930;28;20099;-80
2023/01/30 12:47:23;;;;;;;6.88;3.67;;;3.50;99.90;;;;;;8306575;28;20083;-80
2023/01/30 12:51:39;;;;;;;10.80;5.07;;;3.50;99.90;;;;;;8316230;28;20105;-79
2023/01/30 12:56:17;;;;;;;11.75;4.45;;;3.40;99.90;;;;;;8299472;28;20494;-79
2023/01/30 13:00:29;;;;;;;8.02;4.65;;;3.20;99.90;;;;;;8322553;28;20040;-80
2023/01/30 13:04:58;;;;;;;7.05;3.80;;;3.30;99.90;;;;;;8294867;28;20052;-82
2023/01/30 13:09:01;;;;;;;12.02;5.72;;;3.50;99.90;;;;;;8297552;28;20025;-80
2023/01/30 13:13:22;;;;;;;10.63;4.65;;;3.40;99.90;;;;;;8294612;28;20033;-80
2023/01/30 13:17:36;;;;;;;9.40;5.18;;;3.10;99.90;;;;;;8315597;28;20037;-80
2023/01/30 13:21:50;;;;;;;10.15;4.72;;;3.00;99.90;;;;;;8296926;28;20119;-81
2023/01/30 13:26:17;;;;;;;6.88;3.58;;;2.90;99.90;;;;;;8297723;28;20137;-80
2023/01/30 13:30:18;;;;;;;3.75;2.75;;;3.00;99.90;;;;;;8281644;28;20022;-81
2023/01/30 13:34:39;;;;;;;10.95;5.32;;;3.00;99.90;;;;;;8274663;28;20036;-81
2023/01/30 13:39:02;;;;;;;10.77;4.53;;;3.00;99.90;;;;;;8281650;28;20041;-80
2023/01/30 13:43:39;;;;;;;10.68;5.07;;;3.00;99.90;;;;;;8295351;28;20049;-80
2023/01/30 13:47:55;;;;;;;6.38;3.40;;;2.80;99.90;;;;;;8224854;28;20057;-80
2023/01/30 13:52:07;;;;;;;3.30;1.63;;;3.00;99.90;;;;;;8266096;28;20055;-80
2023/01/30 13:56:21;;;;;;;11.40;5.05;;;3.40;99.90;;;;;;8279119;28;20033;-80
2023/01/30 14:00:27;;;;;;;12.90;6.45;;;3.40;99.90;;;;;;8261450;28;20073;-81
2023/01/30 14:04:38;;;;;;;12.27;6.22;;;3.10;99.90;;;;;;8280870;28;20025;-81
2023/01/30 14:08:47;;;;;;;10.30;5.57;;;3.10;99.90;;;;;;8274382;28;20014;-80
2023/01/30 14:12:54;;;;;;;7.88;4.15;;;3.00;99.90;;;;;;8276160;28;20084;-80
2023/01/30 14:17:15;;;;;;;13.25;5.53;;;2.80;99.90;;;;;;8270830;28;20029;-80
2023/01/30 14:21:19;;;;;;;8.27;4.10;;;2.80;99.90;;;;;;8273901;28;20512;-80
2023/01/30 14:25:29;;;;;;;10.55;5.00;;;2.70;99.90;;;;;;8279612;28;20018;-80
2023/01/30 14:29:41;;;;;;;8.02;3.33;;;2.50;99.90;;;;;;8296537;28;20018;-80
2023/01/30 14:33:50;;;;;;;3.80;2.10;;;2.50;99.90;;;;;;8278126;28;20041;-80
2023/01/30 14:38:04;;;;;;;16.85;5.72;;;2.40;99.90;;;;;;8268523;28;20034;-82
2023/01/30 14:42:24;;;;;;;9.43;4.18;;;2.40;99.90;;;;;;8272651;28;20025;-82
2023/01/30 14:46:25;;;;;;;8.18;4.35;;;2.50;99.90;;;;;;8272373;28;20478;-82
2023/01/30 14:50:25;;;;;;;8.65;3.70;;;2.30;99.90;;;;;;8272406;28;20037;-82
2023/01/30 14:54:32;;;;;;;9.98;5.05;;;2.30;99.90;;;;;;8278564;28;20047;-82
2023/01/30 14:58:32;;;;;;;10.02;4.68;;;2.30;99.90;;;;;;8298921;28;20150;-83
2023/01/30 15:02:42;;;;;;;12.77;5.32;;;2.30;99.90;;;;;;8274952;28;20026;-82
2023/01/30 15:06:45;;;;;;;11.32;5.75;;;2.20;99.90;;;;;;8269680;28;20084;-83
2023/01/30 15:11:13;;;;;;;7.35;4.03;;;2.20;99.90;;;;;;8277359;28;20022;-82
2023/01/30 15:15:41;;;;;;;10.10;3.83;;;2.30;99.90;;;;;;8271551;28;20105;-81
2023/01/30 15:20:03;;;;;;;7.80;3.58;;;2.30;99.90;;;;;;8260354;28;20037;-81
2023/01/30 15:24:07;;;;;;;8.18;3.80;;;2.30;99.90;;;;;;8284342;28;20021;-83
2023/01/30 15:28:29;;;;;;;10.65;5.20;;;2.20;99.90;;;;;;8273913;28;20025;-81
2023/01/30 15:32:31;;;;;;;7.93;4.00;;;2.30;99.90;;;;;;8277935;28;20105;-82
2023/01/30 15:36:34;;;;;;;8.27;4.07;;;2.30;99.90;;;;;;8293747;28;20025;-80
2023/01/30 15:40:36;;;;;;;8.27;4.18;;;2.30;99.90;;;;;;8303211;28;20040;-82
2023/01/30 15:44:56;;;;;;;10.45;4.68;;;2.20;99.90;;;;;;8289452;28;20084;-82
2023/01/30 15:49:21;;;;;;;9.70;4.82;;;2.20;99.90;;;;;;8281498;28;20033;-82
2023/01/30 15:53:26;;;;;;;8.40;4.47;;;2.20;99.90;;;;;;8283821;28;20120;-82
2023/01/30 15:57:32;;;;;;;10.98;4.88;;;2.20;99.90;;;;;;8292091;28;20116;-82
2023/01/30 16:01:33;;;;;;;6.70;3.58;;;2.20;99.90;;;;;;8285866;28;20045;-80
2023/01/30 16:05:33;;;;;;;11.60;5.20;;;2.20;99.90;;;;;;8271975;28;20018;-80
2023/01/30 16:09:34;;;;;;;13.10;5.03;;;2.20;99.90;;;;;;8287390;28;20068;-80
2023/01/30 16:13:35;;;;;;;7.28;3.50;;;2.10;99.90;;;;;;8282440;28;20068;-80
2023/01/30 16:17:36;;;;;;;8.00;3.85;;;2.10;99.90;;;;;;8278626;28;20497;-81
2023/01/30 16:21:41;;;;;;;9.38;4.32;;;2.00;99.90;;;;;;8283009;28;20034;-82
2023/01/30 16:25:46;;;;;;;12.27;4.75;;;2.00;99.90;;;;;;8284771;28;20160;-82
2023/01/30 16:29:51;;;;;;;8.93;3.90;;;1.90;99.90;;;;;;8281825;28;20114;-79
2023/01/30 16:33:52;;;;;;;7.22;3.90;;;1.90;99.90;;;;;;8285140;28;20032;-78
2023/01/30 16:37:54;;;;;;;13.57;4.18;;;2.00;99.90;;;;;;8312154;28;20037;-79
2023/01/30 16:41:56;;;;;;;8.13;3.70;;;1.90;99.90;;;;;;8283161;28;20049;-79
2023/01/30 16:46:40;;;;;;;8.23;3.67;;;1.80;99.90;;;;;;8280592;28;20038;-80
2023/01/30 16:50:42;;;;;;;8.45;4.05;;;1.80;99.90;;;;;;8267166;28;20033;-80
2023/01/30 16:54:47;;;;;;;8.80;4.07;;;1.80;99.90;;;;;;8278336;28;20510;-80
2023/01/30 16:58:51;;;;;;;8.55;4.03;;;1.60;99.90;;;;;;8274961;28;20021;-79
2023/01/30 17:03:21;;;;;;;6.80;3.75;;;1.50;99.90;;;;;;8287866;28;20076;-79
2023/01/30 17:07:33;;;;;;;4.95;2.78;;;1.70;99.90;;;;;;8282766;28;20033;-80
2023/01/30 17:11:40;;;;;;;8.57;4.05;;;2.00;99.90;;;;;;8292560;28;20466;-79
2023/01/30 17:15:41;;;;;;;8.63;3.22;;;2.00;99.90;;;;;;8273965;28;20072;-80
2023/01/30 17:19:45;;;;;;;8.70;3.47;;;2.00;99.90;;;;;;8270882;28;20053;-79
2023/01/30 17:23:59;;;;;;;7.78;3.40;;;1.90;99.90;;;;;;8287746;28;20026;-81
2023/01/30 17:28:01;;;;;;;6.00;2.70;;;2.00;99.90;;;;;;8278579;28;20128;-79
2023/01/30 17:32:09;;;;;;;4.95;2.55;;;2.00;99.90;;;;;;8291569;28;20293;-79
2023/01/30 17:36:20;;;;;;;8.35;3.17;;;2.00;99.90;;;;;;8297713;28;20030;-78
2023/01/30 17:40:30;;;;;;;5.95;3.15;;;1.90;99.90;;;;;;8274689;28;20153;-79
2023/01/30 17:44:31;;;;;;;6.05;3.22;;;2.00;99.90;;;;;;8282881;28;20757;-79
2023/01/30 17:48:31;;;;;;;5.78;3.15;;;2.10;99.90;;;;;;8280322;28;20058;-80
2023/01/30 17:52:32;;;;;;;5.40;2.47;;;2.10;99.90;;;;;;8266144;28;20469;-79
2023/01/30 17:56:37;;;;;;;10.85;4.70;;;2.20;99.90;;;;;;8289013;28;20026;-79
2023/01/30 18:00:37;;;;;;;2.83;1.73;;;2.10;99.90;;;;;;8271217;28;20254;-80
2023/01/30 18:04:41;;;;;;;4.82;2.67;;;2.20;99.90;;;;;;8297165;28;20025;-80
2023/01/30 18:08:41;;;;;;;6.88;3.17;;;2.20;99.90;;;;;;8285171;28;20033;-79
2023/01/30 18:12:44;;;;;;;5.57;3.10;;;2.10;99.90;;;;;;8290092;28;20651;-79
2023/01/30 18:16:45;;;;;;;5.05;3.00;;;2.00;99.90;;;;;;8283663;28;20069;-80
2023/01/30 18:20:45;;;;;;;6.30;2.85;;;1.90;99.90;;;;;;8279395;28;20608;-79
2023/01/30 18:24:46;;;;;;;3.15;1.88;;;1.80;99.90;;;;;;8285068;28;20034;-79
2023/01/30 18:28:47;;;;;;;5.93;2.45;;;1.60;99.90;;;;;;8290819;28;20542;-80
2023/01/30 18:32:48;;;;;;;6.18;3.25;;;1.60;99.90;;;;;;8311496;28;20037;-78
2023/01/30 18:36:48;;;;;;;2.67;1.95;;;1.50;99.90;;;;;;8279597;28;20028;-78
2023/01/30 18:40:49;;;;;;;7.05;3.30;;;1.30;99.90;;;;;;8279331;28;20030;-80
2023/01/30 18:44:49;;;;;;;4.28;2.35;;;1.40;99.90;;;;;;8282747;28;20108;-80
2023/01/30 18:48:50;;;;;;;5.68;2.83;;;1.20;99.90;;;;;;8294453;28;20037;-78
2023/01/30 18:52:50;;;;;;;7.22;2.20;;;1.20;99.90;;;;;;8289855;28;20499;-78
2023/01/30 18:56:51;;;;;;;5.25;2.83;;;1.20;99.90;;;;;;8290264;28;20096;-79
2023/01/30 19:00:51;;;;;;;6.38;2.97;;;1.40;99.90;;;;;;8282447;28;20049;-78
2023/01/30 19:04:52;;;;;;;6.13;3.00;;;1.60;99.90;;;;;;8275899;28;20494;-79
2023/01/30 19:08:53;;;;;;;4.75;3.20;;;1.70;99.90;;;;;;8270239;28;20125;-79
2023/01/30 19:17:14;;;;;;;4.63;2.22;;;1.80;99.90;;;;;;8302414;28;20099;-78
2023/01/30 19:21:18;;;;;;;5.03;3.10;;;2.00;99.90;;;;;;8289680;28;20037;-79
2023/01/30 19:25:18;;;;;;;6.32;2.50;;;1.90;99.90;;;;;;8291367;28;20018;-78
2023/01/30 19:29:19;;;;;;;4.22;2.45;;;2.00;99.90;;;;;;8277681;28;20497;-79
2023/01/30 19:33:19;;;;;;;3.15;1.90;;;1.90;99.90;;;;;;8282321;28;20072;-79
2023/01/30 19:37:20;;;;;;;7.70;3.38;;;1.90;99.90;;;;;;8282176;28;20026;-85
2023/01/30 19:41:25;;;;;;;11.02;2.78;;;1.90;99.90;;;;;;8276027;28;20420;-86
2023/01/30 19:45:26;;;;;;;6.35;2.92;;;1.90;99.90;;;;;;8295832;28;20065;-87
2023/01/30 19:49:26;;;;;;;6.38;3.15;;;2.00;99.90;;;;;;8294599;28;20064;-86
2023/01/30 19:53:27;;;;;;;7.97;3.25;;;2.10;99.90;;;;;;8293687;28;20394;-81
2023/01/30 19:57:27;;;;;;;8.07;3.58;;;2.00;99.90;;;;;;8300686;28;20017;-80
2023/01/30 20:01:31;;;;;;;4.40;2.53;;;2.00;99.90;;;;;;8283126;28;20056;-80
2023/01/30 20:05:32;;;;;;;6.13;3.05;;;2.00;99.90;;;;;;8284556;28;20474;-80
2023/01/30 20:09:32;;;;;;;3.97;2.25;;;1.90;99.90;;;;;;8303672;28;20022;-81
2023/01/30 20:13:34;;;;;;;5.35;2.72;;;1.90;99.90;;;;;;8311102;28;20029;-79
2023/01/30 20:17:35;;;;;;;4.82;2.10;;;2.00;99.90;;;;;;8292926;28;20021;-79
2023/01/30 20:21:36;;;;;;;3.72;2.13;;;1.90;99.90;;;;;;8284741;28;20112;-78
2023/01/30 20:25:36;;;;;;;5.72;2.50;;;2.10;99.90;;;;;;8292115;28;20018;-79
2023/01/30 20:29:37;;;;;;;1.92;1.35;;;2.00;99.90;;;;;;8265195;28;20152;-79
2023/01/30 20:33:38;;;;;;;3.40;2.00;;;2.00;99.90;;;;;;8290562;28;20391;-78
2023/01/30 20:37:39;;;;;;;4.72;2.60;;;2.10;99.90;;;;;;8293942;28;20026;-80
2023/01/30 20:41:39;;;;;;;3.72;2.25;;;1.90;99.90;;;;;;8292610;28;20029;-80
2023/01/30 20:45:40;;;;;;;4.85;2.45;;;2.00;99.90;;;;;;8297588;28;20021;-79
2023/01/30 20:49:41;;;;;;;6.05;3.03;;;2.00;99.90;;;;;;8298546;28;20033;-79
2023/01/30 20:53:47;;;;;;;2.97;1.98;;;2.00;99.90;;;;;;8267244;28;20030;-78
2023/01/30 20:57:48;;;;;;;6.47;2.47;;;2.10;99.90;;;;;;8267239;28;20023;-78
2023/01/30 21:01:50;;;;;;;5.65;2.40;;;2.10;99.90;;;;;;8289372;28;20033;-80
2023/01/30 21:05:57;;;;;;;3.15;1.73;;;2.10;99.90;;;;;;8274122;28;20034;-80
2023/01/30 21:09:58;;;;;;;3.92;2.05;;;2.10;99.90;;;;;;8289556;28;20028;-78
2023/01/30 21:13:59;;;;;;;2.92;1.55;;;2.10;99.90;;;;;;8288280;28;20033;-79
2023/01/30 21:17:59;;;;;;;3.00;2.20;;;2.10;99.90;;;;;;8269596;28;20109;-79
2023/01/30 21:22:06;;;;;;;5.20;2.95;;;2.10;99.90;;;;;;8316062;28;20073;-79
2023/01/30 21:26:08;;;;;;;4.25;2.40;;;2.10;99.90;;;;;;8300198;28;20100;-79
2023/01/30 21:30:09;;;;;;;4.35;2.85;;;2.00;99.90;;;;;;8316206;28;20022;-79
2023/01/30 21:34:10;;;;;;;5.75;2.53;;;2.00;99.90;;;;;;8313616;28;20018;-80